createdAt,value
2022-08-16T00:00:22.539Z,92.07
2022-08-16T00:02:52.394Z,92.37
2022-08-16T00:05:22.739Z,92.06
2022-08-16T00:07:56.395Z,91.96
2022-08-16T00:10:26.946Z,92.08
2022-08-16T00:12:57.248Z,91.84
2022-08-16T00:15:51.468Z,92.06
2022-08-16T00:18:22.109Z,91.74
2022-08-16T00:20:57.768Z,91.78
2022-08-16T00:23:34.962Z,91.90
2022-08-16T00:26:33.893Z,91.97
2022-08-16T00:28:56.206Z,91.63
2022-08-16T00:31:24.112Z,91.45
2022-08-16T00:33:51.986Z,91.56
2022-08-16T00:36:20.369Z,91.61
2022-08-16T00:38:48.375Z,91.76
2022-08-16T00:41:17.184Z,91.74
2022-08-16T00:43:45.652Z,91.46
2022-08-16T00:46:34.975Z,91.36
2022-08-16T00:49:17.531Z,91.67
2022-08-16T00:51:55.256Z,91.38
2022-08-16T00:54:27.939Z,91.46
2022-08-16T00:56:59.723Z,91.60
2022-08-16T00:59:32.870Z,91.77
2022-08-16T01:02:30.707Z,91.86
2022-08-16T01:05:10.667Z,91.38
2022-08-16T01:07:51.193Z,91.31
2022-08-16T01:10:31.912Z,91.19
2022-08-16T01:13:21.073Z,91.09
2022-08-16T01:16:02.934Z,91.04
2022-08-16T01:18:40.507Z,90.82
2022-08-16T01:21:34.838Z,90.97
2022-08-16T01:24:52.467Z,91.01
2022-08-16T01:27:22.383Z,91.01
2022-08-16T01:30:20.355Z,91.28
2022-08-16T01:33:14.442Z,91.17
2022-08-16T01:35:53.376Z,91.25
2022-08-16T01:38:25.862Z,90.95
2022-08-16T01:41:02.659Z,90.89
2022-08-16T01:43:33.654Z,90.78
2022-08-16T01:46:37.408Z,91.00
2022-08-16T01:48:56.607Z,91.28
2022-08-16T01:51:27.640Z,91.88
2022-08-16T01:53:56.921Z,91.84
2022-08-16T01:56:28.797Z,91.82
2022-08-16T01:58:59.638Z,91.88
2022-08-16T02:01:29.483Z,91.84
2022-08-16T02:04:10.180Z,91.96
2022-08-16T02:06:46.630Z,92.09
2022-08-16T02:09:17.846Z,92.12
2022-08-16T02:11:52.958Z,91.45
2022-08-16T02:14:28.132Z,91.59
2022-08-16T02:17:02.381Z,92.03
2022-08-16T02:19:59.997Z,92.15
2022-08-16T02:22:34.888Z,91.56
2022-08-16T02:25:15.163Z,92.08
2022-08-16T02:27:45.212Z,91.98
2022-08-16T02:30:37.385Z,92.06
2022-08-16T02:33:12.096Z,92.26
2022-08-16T02:35:54.120Z,92.40
2022-08-16T02:38:31.632Z,92.32
2022-08-16T02:41:09.802Z,92.11
2022-08-16T02:43:39.805Z,92.65
2022-08-16T02:46:09.815Z,92.37
2022-08-16T02:48:39.801Z,92.45
2022-08-16T02:51:17.923Z,92.50
2022-08-16T02:53:48.694Z,92.49
2022-08-16T02:56:18.827Z,92.62
2022-08-16T02:58:50.264Z,92.52
2022-08-16T03:01:36.685Z,92.38
2022-08-16T03:04:29.612Z,92.29
2022-08-16T03:07:01.506Z,92.23
2022-08-16T03:09:39.557Z,92.32
2022-08-16T03:12:07.640Z,92.40
2022-08-16T03:14:35.791Z,92.42
2022-08-16T03:17:06.763Z,92.24
2022-08-16T03:19:48.503Z,92.55
2022-08-16T03:22:28.125Z,92.63
2022-08-16T03:25:01.808Z,92.28
2022-08-16T03:27:32.978Z,92.15
2022-08-16T03:30:16.273Z,92.44
2022-08-16T03:32:51.259Z,92.41
2022-08-16T03:35:23.928Z,92.44
2022-08-16T03:38:32.900Z,92.60
2022-08-16T03:40:57.812Z,92.49
2022-08-16T03:43:51.326Z,92.34
2022-08-16T03:46:44.845Z,92.71
2022-08-16T03:49:12.270Z,92.55
2022-08-16T03:51:42.393Z,92.64
2022-08-16T03:54:13.899Z,92.49
2022-08-16T03:56:57.807Z,92.69
2022-08-16T03:59:31.430Z,92.53
2022-08-16T04:02:10.653Z,92.47
2022-08-16T04:04:50.531Z,92.74
2022-08-16T04:07:18.383Z,92.91
2022-08-16T04:09:47.738Z,92.55
2022-08-16T04:12:53.599Z,92.28
2022-08-16T04:15:07.176Z,92.54
2022-08-16T04:17:40.559Z,92.34
2022-08-16T04:20:23.851Z,92.54
2022-08-16T04:22:59.072Z,92.63
2022-08-16T04:25:29.426Z,92.50
2022-08-16T04:27:57.126Z,92.32
2022-08-16T04:30:45.457Z,92.29
2022-08-16T04:33:15.589Z,92.52
2022-08-16T04:35:44.420Z,92.41
2022-08-16T04:38:20.792Z,92.35
2022-08-16T04:40:51.699Z,92.24
2022-08-16T04:43:21.977Z,92.41
2022-08-16T04:46:00.219Z,92.25
2022-08-16T04:48:34.215Z,92.41
2022-08-16T04:51:12.503Z,92.07
2022-08-16T04:53:48.395Z,92.39
2022-08-16T04:56:19.977Z,92.39
2022-08-16T04:58:49.094Z,92.48
2022-08-16T05:01:18.825Z,92.55
2022-08-16T05:03:59.687Z,92.60
2022-08-16T05:06:42.197Z,92.85
2022-08-16T05:09:13.786Z,92.74
2022-08-16T05:11:44.856Z,92.78
2022-08-16T05:14:20.016Z,92.83
2022-08-16T05:17:00.404Z,92.85
2022-08-16T05:19:27.958Z,92.53
2022-08-16T05:22:17.951Z,92.75
2022-08-16T05:24:49.481Z,92.89
2022-08-16T05:27:22.795Z,93.06
2022-08-16T05:30:00.949Z,93.06
2022-08-16T05:32:54.442Z,93.11
2022-08-16T05:35:24.452Z,93.19
2022-08-16T05:38:33.165Z,92.87
2022-08-16T05:41:00.467Z,93.03
2022-08-16T05:43:43.180Z,92.93
2022-08-16T05:46:28.720Z,93.11
2022-08-16T05:49:09.039Z,92.93
2022-08-16T05:51:42.343Z,92.94
2022-08-16T05:54:24.746Z,93.19
2022-08-16T05:56:56.437Z,93.01
2022-08-16T05:59:27.431Z,93.12
2022-08-16T06:01:57.514Z,92.97
2022-08-16T06:04:36.619Z,93.09
2022-08-16T06:07:24.540Z,93.05
2022-08-16T06:09:59.644Z,93.21
2022-08-16T06:12:29.925Z,93.00
2022-08-16T06:15:10.157Z,93.50
2022-08-16T06:17:44.092Z,93.27
2022-08-16T06:20:25.623Z,93.33
2022-08-16T06:23:11.627Z,93.31
2022-08-16T06:25:58.084Z,93.33
2022-08-16T06:28:36.006Z,93.28
2022-08-16T06:31:07.039Z,93.06
2022-08-16T06:33:42.337Z,93.24
2022-08-16T06:36:14.835Z,93.21
2022-08-16T06:38:55.659Z,93.58
2022-08-16T06:41:56.898Z,93.60
2022-08-16T06:44:50.618Z,93.70
2022-08-16T06:47:53.144Z,93.59
2022-08-16T06:50:22.110Z,93.35
2022-08-16T06:53:00.240Z,93.11
2022-08-16T06:55:34.171Z,93.02
2022-08-16T06:58:08.312Z,93.07
2022-08-16T07:00:38.411Z,92.86
2022-08-16T07:03:26.967Z,92.90
2022-08-16T07:05:59.461Z,93.28
2022-08-16T07:08:33.451Z,93.07
2022-08-16T07:11:01.695Z,92.72
2022-08-16T07:14:00.372Z,92.88
2022-08-16T07:16:21.280Z,92.89
2022-08-16T07:19:01.089Z,93.01
2022-08-16T07:21:46.712Z,92.96
2022-08-16T07:24:30.155Z,92.91
2022-08-16T07:27:08.474Z,92.94
2022-08-16T07:29:40.192Z,92.74
2022-08-16T07:32:10.046Z,92.73
2022-08-16T07:34:48.381Z,92.65
2022-08-16T07:37:18.313Z,92.63
2022-08-16T07:40:13.623Z,92.43
2022-08-16T07:42:44.540Z,92.55
2022-08-16T07:45:13.866Z,92.56
2022-08-16T07:47:51.159Z,92.50
2022-08-16T07:50:55.906Z,92.59
2022-08-16T07:53:08.237Z,92.52
2022-08-16T07:55:45.901Z,92.50
2022-08-16T07:58:34.764Z,92.36
2022-08-16T08:01:10.585Z,92.34
2022-08-16T08:03:48.265Z,92.10
2022-08-16T08:06:24.982Z,92.44
2022-08-16T08:08:56.946Z,92.59
2022-08-16T08:11:28.087Z,92.28
2022-08-16T08:14:03.509Z,92.44
2022-08-16T08:16:35.662Z,92.38
2022-08-16T08:19:04.973Z,92.30
2022-08-16T08:22:00.603Z,92.46
2022-08-16T08:24:33.257Z,92.50
2022-08-16T08:27:03.902Z,92.21
2022-08-16T08:29:37.775Z,92.27
2022-08-16T08:32:58.776Z,92.07
2022-08-16T08:35:03.961Z,92.29
2022-08-16T08:37:54.338Z,92.23
2022-08-16T08:40:27.665Z,92.23
2022-08-16T08:43:00.585Z,92.38
2022-08-16T08:45:48.589Z,92.48
2022-08-16T08:48:32.766Z,92.33
2022-08-16T08:51:08.804Z,92.41
2022-08-16T08:53:46.720Z,92.55
2022-08-16T08:56:32.396Z,92.65
2022-08-16T08:59:29.448Z,92.40
2022-08-16T09:01:58.759Z,92.63
2022-08-16T09:04:36.570Z,92.25
2022-08-16T09:07:07.025Z,92.36
2022-08-16T09:09:40.874Z,92.42
2022-08-16T09:12:31.096Z,92.31
2022-08-16T09:15:09.679Z,92.23
2022-08-16T09:17:53.388Z,92.08
2022-08-16T09:20:29.503Z,91.87
2022-08-16T09:22:58.922Z,92.06
2022-08-16T09:25:35.362Z,91.75
2022-08-16T09:28:12.462Z,91.71
2022-08-16T09:31:11.007Z,91.86
2022-08-16T09:33:39.905Z,91.91
2022-08-16T09:36:11.962Z,92.31
2022-08-16T09:38:59.571Z,92.33
2022-08-16T09:41:28.223Z,92.31
2022-08-16T09:44:00.535Z,92.04
2022-08-16T09:46:44.609Z,92.11
2022-08-16T09:49:14.441Z,91.40
2022-08-16T09:51:43.356Z,91.58
2022-08-16T09:54:17.119Z,91.19
2022-08-16T09:56:53.351Z,91.60
2022-08-16T09:59:23.870Z,91.29
2022-08-16T10:01:54.563Z,91.49
2022-08-16T10:04:31.499Z,91.45
2022-08-16T10:07:15.478Z,91.28
2022-08-16T10:09:55.002Z,91.16
2022-08-16T10:12:55.434Z,91.31
2022-08-16T10:15:30.166Z,91.28
2022-08-16T10:18:00.844Z,91.02
2022-08-16T10:20:38.526Z,91.17
2022-08-16T10:23:09.937Z,90.92
2022-08-16T10:27:18.289Z,90.94
2022-08-16T10:28:39.655Z,90.80
2022-08-16T10:31:12.077Z,90.57
2022-08-16T10:33:46.108Z,90.71
2022-08-16T10:36:39.405Z,90.55
2022-08-16T10:39:04.482Z,90.88
2022-08-16T10:41:32.937Z,91.03
2022-08-16T10:44:00.894Z,91.14
2022-08-16T10:46:39.600Z,91.09
2022-08-16T10:49:12.516Z,90.69
2022-08-16T10:52:01.846Z,90.86
2022-08-16T10:54:32.213Z,91.02
2022-08-16T10:57:04.246Z,90.58
2022-08-16T10:59:46.946Z,90.52
2022-08-16T11:02:58.966Z,90.65
2022-08-16T11:05:14.299Z,90.23
2022-08-16T11:07:51.975Z,90.23
2022-08-16T11:19:04.184Z,88.57
2022-08-16T11:21:37.618Z,88.17
2022-08-16T11:24:39.424Z,88.31
2022-08-16T11:27:23.482Z,88.59
2022-08-16T11:29:55.248Z,88.74
2022-08-16T11:32:30.376Z,88.55
2022-08-16T11:35:14.098Z,88.71
2022-08-16T11:38:23.219Z,88.87
2022-08-16T11:40:52.285Z,88.55
2022-08-16T11:43:24.971Z,89.05
2022-08-16T11:45:56.854Z,89.50
2022-08-16T11:48:27.040Z,89.38
2022-08-16T11:50:56.235Z,89.44
2022-08-16T11:53:24.819Z,89.04
2022-08-16T11:55:54.626Z,88.50
2022-08-16T11:58:25.587Z,88.33
2022-08-16T12:00:54.907Z,88.45
2022-08-16T12:03:34.312Z,88.04
2022-08-16T12:06:25.438Z,88.15
2022-08-16T12:09:01.118Z,88.75
2022-08-16T12:11:32.099Z,88.19
2022-08-16T12:14:05.475Z,87.50
2022-08-16T12:16:36.185Z,87.02
2022-08-16T12:19:10.365Z,86.14
2022-08-16T12:21:58.420Z,86.17
2022-08-16T12:24:27.936Z,86.16
2022-08-16T12:26:55.914Z,86.21
2022-08-16T12:29:25.840Z,85.82
2022-08-16T12:32:01.650Z,85.68
2022-08-16T12:34:50.559Z,85.76
2022-08-16T12:37:24.473Z,85.80
2022-08-16T12:39:56.404Z,85.64
2022-08-16T12:42:34.753Z,85.47
2022-08-16T12:45:06.473Z,85.84
2022-08-16T12:48:09.925Z,85.20
2022-08-16T12:50:41.137Z,85.49
2022-08-16T12:53:09.510Z,85.15
2022-08-16T12:55:41.885Z,85.27
2022-08-16T12:58:13.560Z,85.52
2022-08-16T13:00:57.944Z,85.18
2022-08-16T13:03:26.944Z,85.21
2022-08-16T13:05:55.910Z,84.67
2022-08-16T13:08:27.569Z,84.54
2022-08-16T13:10:59.877Z,84.26
2022-08-16T13:13:27.418Z,84.37
2022-08-16T13:16:03.724Z,84.39
2022-08-16T13:18:36.170Z,83.43
2022-08-16T13:21:06.627Z,83.33
2022-08-16T13:23:36.058Z,83.24
2022-08-16T13:26:12.840Z,82.34
2022-08-16T13:28:47.758Z,81.50
2022-08-16T13:31:16.742Z,81.00
2022-08-16T13:33:44.589Z,80.78
2022-08-16T13:36:32.145Z,81.01
2022-08-16T13:39:01.954Z,80.35
2022-08-16T13:41:30.032Z,79.17
2022-08-16T13:44:00.852Z,77.58
2022-08-16T13:46:32.507Z,78.82
2022-08-16T13:49:01.667Z,78.55
2022-08-16T13:51:30.935Z,78.40
2022-08-16T13:54:03.851Z,77.71
2022-08-16T13:56:38.079Z,77.39
2022-08-16T13:59:19.530Z,78.02
2022-08-16T14:01:55.624Z,77.80
2022-08-16T14:04:29.269Z,77.69
2022-08-16T14:06:58.134Z,77.18
2022-08-16T14:09:27.192Z,76.82
2022-08-16T14:12:00.778Z,77.00
2022-08-16T14:14:30.017Z,76.89
2022-08-16T14:16:59.787Z,76.45
2022-08-16T14:19:29.564Z,75.87
2022-08-16T14:22:13.646Z,76.26
2022-08-16T14:24:45.266Z,75.88
2022-08-16T14:27:21.202Z,75.42
2022-08-16T14:29:50.997Z,75.72
2022-08-16T14:32:33.034Z,75.13
2022-08-16T14:35:07.679Z,75.09
2022-08-16T14:37:36.337Z,75.37
2022-08-16T14:40:09.545Z,74.73
2022-08-16T14:42:37.970Z,74.39
2022-08-16T14:45:08.968Z,75.07
2022-08-16T14:47:38.597Z,74.86
2022-08-16T14:50:09.196Z,74.89
2022-08-16T14:52:55.210Z,74.43
2022-08-16T14:55:26.114Z,74.82
2022-08-16T14:57:54.814Z,74.86
2022-08-16T15:00:33.270Z,75.42
2022-08-16T15:03:09.641Z,75.44
2022-08-16T15:05:39.567Z,75.68
2022-08-16T15:08:07.540Z,75.85
2022-08-16T15:10:37.314Z,75.92
2022-08-16T15:13:09.643Z,76.27
2022-08-16T15:15:39.568Z,76.32
2022-08-16T15:18:11.782Z,76.64
2022-08-16T15:20:41.513Z,76.95
2022-08-16T15:23:10.435Z,77.48
2022-08-16T15:25:43.353Z,78.26
2022-08-16T15:28:23.551Z,79.55
2022-08-16T15:31:03.853Z,79.96
2022-08-16T15:33:34.941Z,80.70
2022-08-16T15:36:04.640Z,80.83
2022-08-16T15:38:57.018Z,81.12
2022-08-16T15:41:49.642Z,80.61
2022-08-16T15:44:22.437Z,81.55
2022-08-16T15:46:58.583Z,81.69
2022-08-16T15:49:34.918Z,81.37
2022-08-16T15:52:10.560Z,81.04
2022-08-16T15:54:52.572Z,81.33
2022-08-16T15:57:26.565Z,81.13
2022-08-16T15:59:55.912Z,81.08
2022-08-16T16:02:30.921Z,80.90
2022-08-16T16:05:09.950Z,80.67
2022-08-16T16:07:40.735Z,80.81
2022-08-16T16:10:13.002Z,80.74
2022-08-16T16:12:53.484Z,80.71
2022-08-16T16:15:31.049Z,80.67
2022-08-16T16:17:59.876Z,81.24
2022-08-16T16:20:46.331Z,81.42
2022-08-16T16:23:17.353Z,81.49
2022-08-16T16:25:45.736Z,81.37
2022-08-16T16:28:51.168Z,81.67
2022-08-16T16:31:08.426Z,81.58
2022-08-16T16:33:39.907Z,81.80
2022-08-16T16:36:11.168Z,81.47
2022-08-16T16:38:41.911Z,81.53
2022-08-16T16:41:11.505Z,81.70
2022-08-16T16:43:43.084Z,81.49
2022-08-16T16:46:40.387Z,80.98
2022-08-16T16:49:08.570Z,81.00
2022-08-16T16:51:40.933Z,80.64
2022-08-16T16:54:09.898Z,80.86
2022-08-16T16:56:45.990Z,80.90
2022-08-16T16:59:20.137Z,80.81
2022-08-16T17:02:00.404Z,81.07
2022-08-16T17:04:38.018Z,81.23
2022-08-16T17:07:10.565Z,81.17
2022-08-16T17:09:41.102Z,81.40
2022-08-16T17:12:12.119Z,81.84
2022-08-16T17:14:50.486Z,81.98
2022-08-16T17:17:18.156Z,81.66
2022-08-16T17:19:46.996Z,81.72
2022-08-16T17:22:19.913Z,81.67
2022-08-16T17:24:52.655Z,81.85
2022-08-16T17:27:32.969Z,82.06
2022-08-16T17:30:16.493Z,81.93
2022-08-16T17:33:04.991Z,81.90
2022-08-16T17:35:34.763Z,82.10
2022-08-16T17:38:06.399Z,82.02
2022-08-16T17:40:45.883Z,82.25
2022-08-16T17:43:20.844Z,82.23
2022-08-16T17:45:48.836Z,82.27
2022-08-16T17:48:17.117Z,82.34
2022-08-16T17:50:46.187Z,82.22
2022-08-16T17:53:14.744Z,82.30
2022-08-16T17:55:47.425Z,82.31
2022-08-16T17:58:23.555Z,82.65
2022-08-16T18:00:56.042Z,82.65
2022-08-16T18:04:06.996Z,82.47
2022-08-16T18:06:16.806Z,82.27
2022-08-16T18:08:49.046Z,82.41
2022-08-16T18:11:25.662Z,82.68
2022-08-16T18:13:54.660Z,82.58
2022-08-16T18:16:22.717Z,82.57
2022-08-16T18:18:50.334Z,82.73
2022-08-16T18:21:36.746Z,83.09
2022-08-16T18:24:04.910Z,83.17
2022-08-16T18:26:32.565Z,83.35
2022-08-16T18:29:00.411Z,83.35
2022-08-16T18:31:28.120Z,83.38
2022-08-16T18:33:56.405Z,83.56
2022-08-16T18:36:25.373Z,83.59
2022-08-16T18:38:53.985Z,83.97
2022-08-16T18:41:23.859Z,84.11
2022-08-16T18:44:22.233Z,84.07
2022-08-16T18:46:46.027Z,84.22
2022-08-16T18:49:19.481Z,84.66
2022-08-16T18:51:47.365Z,84.63
2022-08-16T18:54:18.505Z,84.15
2022-08-16T18:56:56.099Z,84.11
2022-08-16T18:59:26.598Z,85.13
2022-08-16T19:01:56.953Z,86.47
2022-08-16T19:04:56.955Z,87.39
2022-08-16T19:07:17.175Z,88.26
2022-08-16T19:09:44.790Z,89.15
2022-08-16T19:12:15.898Z,89.14
2022-08-16T19:14:45.655Z,89.83
2022-08-16T19:17:13.332Z,90.27
2022-08-16T19:19:40.875Z,90.23
2022-08-16T19:22:08.498Z,90.47
2022-08-16T19:24:36.094Z,90.80
2022-08-16T19:27:10.217Z,90.82
2022-08-16T19:29:37.879Z,91.26
2022-08-16T19:32:16.516Z,91.34
2022-08-16T19:34:44.148Z,91.58
2022-08-16T19:37:11.733Z,91.60
2022-08-16T19:39:39.649Z,91.71
2022-08-16T19:42:16.240Z,91.57
2022-08-16T19:44:46.780Z,91.96
2022-08-16T19:47:15.285Z,92.09
2022-08-16T19:49:43.279Z,92.25
2022-08-16T19:52:21.610Z,91.62
2022-08-16T19:54:52.227Z,91.81
2022-08-16T19:57:21.613Z,91.27
2022-08-16T19:59:49.930Z,91.27
2022-08-16T20:02:36.224Z,90.72
2022-08-16T20:05:05.441Z,91.05
2022-08-16T20:07:33.030Z,91.00
2022-08-16T20:10:00.888Z,91.38
2022-08-16T20:12:28.383Z,91.78
2022-08-16T20:14:55.970Z,91.80
2022-08-16T20:17:23.508Z,92.24
2022-08-16T20:19:51.193Z,91.79
2022-08-16T20:22:42.150Z,91.98
2022-08-16T20:25:09.440Z,91.82
2022-08-16T20:27:37.763Z,92.10
2022-08-16T20:30:06.699Z,91.92
2022-08-16T20:32:36.132Z,91.79
2022-08-16T20:35:07.645Z,91.91
2022-08-16T20:37:37.351Z,91.51
2022-08-16T20:40:27.317Z,91.82
2022-08-16T20:43:09.932Z,91.41
2022-08-16T20:45:39.134Z,91.09
2022-08-16T20:48:07.401Z,91.64
2022-08-16T20:50:35.900Z,90.97
2022-08-16T20:53:04.887Z,91.33
2022-08-16T20:55:35.844Z,91.25
2022-08-16T20:58:03.728Z,91.38
2022-08-16T21:00:33.601Z,91.63
2022-08-16T21:03:06.625Z,91.39
2022-08-16T21:05:34.435Z,91.78
2022-08-16T21:08:03.921Z,91.86
2022-08-16T21:10:50.255Z,91.49
2022-08-16T21:13:18.176Z,91.42
2022-08-16T21:15:45.791Z,91.49
2022-08-16T21:18:13.428Z,91.26
2022-08-16T21:20:41.355Z,91.40
2022-08-16T21:23:11.274Z,91.63
2022-08-16T21:25:57.960Z,92.01
2022-08-16T21:28:41.020Z,91.60
2022-08-16T21:31:16.024Z,91.55
2022-08-16T21:33:45.468Z,91.73
2022-08-16T21:36:37.053Z,91.36
2022-08-16T21:39:06.283Z,91.32
2022-08-16T21:41:35.547Z,91.00
2022-08-16T21:44:09.066Z,91.57
2022-08-16T21:46:36.725Z,91.10
2022-08-16T21:49:05.920Z,91.61
2022-08-16T21:51:34.694Z,91.79
2022-08-16T21:54:02.749Z,91.93
2022-08-16T21:56:31.192Z,91.66
2022-08-16T21:58:58.743Z,91.87
2022-08-16T22:01:26.721Z,92.08
2022-08-16T22:04:35.514Z,91.85
2022-08-16T22:06:42.989Z,92.14
2022-08-16T22:09:15.320Z,91.78
2022-08-16T22:11:45.938Z,91.34
2022-08-16T22:14:22.959Z,91.83
2022-08-16T22:16:50.616Z,92.12
2022-08-16T22:19:18.447Z,91.63
2022-08-16T22:21:46.050Z,92.00
2022-08-16T22:24:13.574Z,92.16
2022-08-16T22:26:43.528Z,92.29
2022-08-16T22:29:14.035Z,92.15
2022-08-16T22:31:43.341Z,92.36
2022-08-16T22:34:12.026Z,92.45
2022-08-16T22:36:40.414Z,92.72
2022-08-16T22:39:12.927Z,92.36
2022-08-16T22:41:42.398Z,92.45
2022-08-16T22:44:10.122Z,92.00
2022-08-16T22:46:37.760Z,91.97
2022-08-16T22:49:06.143Z,92.61
2022-08-16T22:51:34.725Z,92.21
2022-08-16T22:54:34.016Z,91.99
2022-08-16T22:56:50.644Z,92.06
2022-08-16T22:59:18.194Z,91.88
2022-08-16T23:01:45.952Z,92.21
2022-08-16T23:04:13.555Z,92.23
2022-08-16T23:06:41.113Z,91.71
2022-08-16T23:09:09.224Z,91.82
2022-08-16T23:11:37.058Z,91.92
2022-08-16T23:14:04.689Z,92.02
2022-08-16T23:16:34.609Z,92.16
2022-08-16T23:19:05.170Z,91.70
2022-08-16T23:21:33.649Z,92.32
2022-08-16T23:24:01.573Z,92.08
2022-08-16T23:26:44.501Z,92.07
2022-08-16T23:29:23.333Z,91.57
2022-08-16T23:32:08.717Z,92.07
2022-08-16T23:34:36.783Z,91.80
2022-08-16T23:37:04.309Z,91.80
2022-08-16T23:39:32.173Z,91.94
2022-08-16T23:41:59.751Z,91.94
2022-08-16T23:44:56.779Z,91.91
2022-08-16T23:47:15.085Z,92.01
2022-08-16T23:49:59.064Z,91.53
2022-08-16T23:52:54.856Z,91.89
2022-08-16T23:55:18.059Z,91.67
2022-08-16T23:57:46.347Z,91.06
